Avondale, Arizona
Current Conditions -  °F | °C
As of 4:47 PM on Saturday 25 Oct 2014 (Local Time) from KGYR Reporting Station
Few Clouds Few Clouds  
Wind Chill: 34°   Ceiling: Unl
Heat Index: 34°   Visibility: 10mi
Dew Point: 11°   Wind: 0mph
Humidity: 24%   Direction: NA
Pressure: 29.92"   Gusts: NA
Location:  33.44°N, 112.34°W
Report Text: KGYR 252347Z 00000KT 10SM FEW120 FEW180 34/11 A2992
Loading
Personal Weather Stations






























Interactive Weather Map
Tropical Storm Tracking
New forecast layout! Learn more

10-Day Weather Forecast

Advertisements
Track Severe Weather on mobile